Ashmore, Illinois
Current Conditions -  °F | °C
As of 10:53 PM on Monday 20 Oct 2014 (Local Time) from KMTO Reporting Station
Overcast Overcast  
Wind Chill: 54°   Ceiling: 6000
Heat Index: 54°   Visibility: 10mi
Dew Point: 43°   Wind: 6mph
Humidity: 66%   Direction: 280°W
Pressure: 29.99"   Gusts: NA
Location:  39.53°N, 88.02°W
Report Text: KMTO 210353Z AUTO 28005KT 10SM OVC060 12/06 A2999 RMK AO2 SLP153 T01220061
Loading
Personal Weather Stations






























Interactive Weather Map New forecast layout! Learn more

10-Day Weather Forecast

Advertisements
Track Severe Weather on mobile